Terminal Aerodrome Forecast
Issued by NWS

Home | Current Version | Previous Version | Text Only | Print | Product List | Glossary On
Versions: 1 2 3 4 5 6 7 8 9 10 11 12 13 14 15 16 17 18 19 20 21 22 23 24 25 26 27
000
FTUS41 KRLX 281400 AAB
TAFCKB
TAF AMD
KCKB 281427Z 2814/2912 04004KT P6SM BKN015
      TEMPO 2814/2816 SCT025
     FM281600 01004KT P6SM SCT035
     FM290500 00000KT 6SM BR FEW200
     FM290800 00000KT 3SM BR FEW200
     FM291000 00000KT 1SM BR SCT001=

USA.gov is the U.S. government's official web portal to all federal, state and local government web resources and services.